sensor_id;sensor_type;location;lat;lon;timestamp;P1;durP1;ratioP1;P2;durP2;ratioP2
65855;SDS011;52631;42.208;24.656;2022-08-19T00:01:09;7.43;;;5.72;;
65855;SDS011;52631;42.208;24.656;2022-08-19T00:03:35;9.85;;;6.13;;
65855;SDS011;52631;42.208;24.656;2022-08-19T00:06:00;9.02;;;6.65;;
65855;SDS011;52631;42.208;24.656;2022-08-19T00:08:26;8.40;;;5.47;;
65855;SDS011;52631;42.208;24.656;2022-08-19T00:10:51;9.65;;;6.32;;
65855;SDS011;52631;42.208;24.656;2022-08-19T00:13:17;9.68;;;5.47;;
65855;SDS011;52631;42.208;24.656;2022-08-19T00:15:43;7.55;;;5.10;;
65855;SDS011;52631;42.208;24.656;2022-08-19T00:18:09;9.43;;;5.25;;
65855;SDS011;52631;42.208;24.656;2022-08-19T00:20:35;8.30;;;5.22;;
65855;SDS011;52631;42.208;24.656;2022-08-19T00:23:03;8.70;;;5.85;;
65855;SDS011;52631;42.208;24.656;2022-08-19T00:25:28;8.05;;;6.00;;
65855;SDS011;52631;42.208;24.656;2022-08-19T00:27:54;9.52;;;6.10;;
65855;SDS011;52631;42.208;24.656;2022-08-19T00:30:19;8.27;;;6.18;;
65855;SDS011;52631;42.208;24.656;2022-08-19T00:32:45;8.00;;;5.75;;
65855;SDS011;52631;42.208;24.656;2022-08-19T00:35:11;7.72;;;5.55;;
65855;SDS011;52631;42.208;24.656;2022-08-19T00:37:37;9.95;;;5.80;;
65855;SDS011;52631;42.208;24.656;2022-08-19T00:40:04;7.85;;;5.88;;
65855;SDS011;52631;42.208;24.656;2022-08-19T00:42:31;7.47;;;6.13;;
65855;SDS011;52631;42.208;24.656;2022-08-19T00:44:56;7.55;;;5.97;;
65855;SDS011;52631;42.208;24.656;2022-08-19T00:47:22;8.23;;;5.65;;
65855;SDS011;52631;42.208;24.656;2022-08-19T00:49:51;8.48;;;5.95;;
65855;SDS011;52631;42.208;24.656;2022-08-19T00:52:26;8.02;;;5.55;;
65855;SDS011;52631;42.208;24.656;2022-08-19T00:54:55;8.80;;;5.57;;
65855;SDS011;52631;42.208;24.656;2022-08-19T00:57:44;6.95;;;5.85;;
65855;SDS011;52631;42.208;24.656;2022-08-19T01:00:11;6.80;;;5.70;;
65855;SDS011;52631;42.208;24.656;2022-08-19T01:02:39;8.50;;;5.90;;
65855;SDS011;52631;42.208;24.656;2022-08-19T01:05:06;7.53;;;5.95;;
65855;SDS011;52631;42.208;24.656;2022-08-19T01:07:35;8.88;;;5.55;;
65855;SDS011;52631;42.208;24.656;2022-08-19T01:10:00;7.88;;;5.72;;
65855;SDS011;52631;42.208;24.656;2022-08-19T01:12:26;10.48;;;7.38;;
65855;SDS011;52631;42.208;24.656;2022-08-19T01:14:52;8.40;;;6.25;;
65855;SDS011;52631;42.208;24.656;2022-08-19T01:17:18;8.07;;;6.13;;
65855;SDS011;52631;42.208;24.656;2022-08-19T01:19:44;8.13;;;5.88;;
65855;SDS011;52631;42.208;24.656;2022-08-19T01:22:30;8.65;;;5.88;;
65855;SDS011;52631;42.208;24.656;2022-08-19T01:25:16;7.40;;;5.43;;
65855;SDS011;52631;42.208;24.656;2022-08-19T01:27:44;7.45;;;5.57;;
65855;SDS011;52631;42.208;24.656;2022-08-19T01:30:13;6.78;;;5.35;;
65855;SDS011;52631;42.208;24.656;2022-08-19T01:32:41;7.88;;;5.82;;
65855;SDS011;52631;42.208;24.656;2022-08-19T01:35:08;9.60;;;5.80;;
65855;SDS011;52631;42.208;24.656;2022-08-19T01:37:48;8.25;;;5.55;;
65855;SDS011;52631;42.208;24.656;2022-08-19T01:40:33;8.65;;;5.45;;
65855;SDS011;52631;42.208;24.656;2022-08-19T01:43:00;8.05;;;6.55;;
65855;SDS011;52631;42.208;24.656;2022-08-19T01:45:27;9.30;;;6.07;;
65855;SDS011;52631;42.208;24.656;2022-08-19T01:47:54;8.23;;;5.68;;
65855;SDS011;52631;42.208;24.656;2022-08-19T01:50:20;10.07;;;6.05;;
65855;SDS011;52631;42.208;24.656;2022-08-19T01:52:46;10.20;;;5.90;;
65855;SDS011;52631;42.208;24.656;2022-08-19T01:55:13;8.45;;;6.25;;
65855;SDS011;52631;42.208;24.656;2022-08-19T01:57:41;7.72;;;6.15;;
65855;SDS011;52631;42.208;24.656;2022-08-19T02:00:10;8.48;;;6.32;;
65855;SDS011;52631;42.208;24.656;2022-08-19T02:02:38;10.45;;;7.03;;
65855;SDS011;52631;42.208;24.656;2022-08-19T02:05:04;8.48;;;6.18;;
65855;SDS011;52631;42.208;24.656;2022-08-19T02:07:33;12.02;;;7.43;;
65855;SDS011;52631;42.208;24.656;2022-08-19T02:10:05;9.98;;;7.03;;
65855;SDS011;52631;42.208;24.656;2022-08-19T02:12:32;9.32;;;6.78;;
65855;SDS011;52631;42.208;24.656;2022-08-19T02:14:58;8.85;;;6.70;;
65855;SDS011;52631;42.208;24.656;2022-08-19T02:17:24;8.07;;;6.03;;
65855;SDS011;52631;42.208;24.656;2022-08-19T02:19:49;9.57;;;6.57;;
65855;SDS011;52631;42.208;24.656;2022-08-19T02:22:15;8.38;;;6.72;;
65855;SDS011;52631;42.208;24.656;2022-08-19T02:24:40;10.32;;;7.15;;
65855;SDS011;52631;42.208;24.656;2022-08-19T02:27:06;9.27;;;6.95;;
65855;SDS011;52631;42.208;24.656;2022-08-19T02:29:32;9.38;;;7.05;;
65855;SDS011;52631;42.208;24.656;2022-08-19T02:31:57;9.02;;;7.05;;
65855;SDS011;52631;42.208;24.656;2022-08-19T02:34:23;10.20;;;7.03;;
65855;SDS011;52631;42.208;24.656;2022-08-19T02:36:49;8.77;;;6.85;;
65855;SDS011;52631;42.208;24.656;2022-08-19T02:39:15;9.95;;;7.45;;
65855;SDS011;52631;42.208;24.656;2022-08-19T02:41:41;11.88;;;7.28;;
65855;SDS011;52631;42.208;24.656;2022-08-19T02:44:06;9.65;;;7.10;;
65855;SDS011;52631;42.208;24.656;2022-08-19T02:46:32;11.70;;;7.47;;
65855;SDS011;52631;42.208;24.656;2022-08-19T02:48:59;9.60;;;7.15;;
65855;SDS011;52631;42.208;24.656;2022-08-19T02:51:28;10.60;;;7.45;;
65855;SDS011;52631;42.208;24.656;2022-08-19T02:53:56;13.82;;;8.02;;
65855;SDS011;52631;42.208;24.656;2022-08-19T02:56:22;11.85;;;7.15;;
65855;SDS011;52631;42.208;24.656;2022-08-19T02:58:50;12.57;;;7.57;;
65855;SDS011;52631;42.208;24.656;2022-08-19T03:01:31;10.07;;;7.45;;
65855;SDS011;52631;42.208;24.656;2022-08-19T03:03:58;10.38;;;7.45;;
65855;SDS011;52631;42.208;24.656;2022-08-19T03:06:25;11.15;;;7.70;;
65855;SDS011;52631;42.208;24.656;2022-08-19T03:08:51;9.10;;;7.20;;
65855;SDS011;52631;42.208;24.656;2022-08-19T03:11:19;9.23;;;7.40;;
65855;SDS011;52631;42.208;24.656;2022-08-19T03:13:52;10.18;;;7.40;;
65855;SDS011;52631;42.208;24.656;2022-08-19T03:16:19;11.27;;;7.13;;
65855;SDS011;52631;42.208;24.656;2022-08-19T03:18:48;9.63;;;7.47;;
65855;SDS011;52631;42.208;24.656;2022-08-19T03:21:24;14.07;;;8.38;;
65855;SDS011;52631;42.208;24.656;2022-08-19T03:23:53;11.30;;;7.63;;
65855;SDS011;52631;42.208;24.656;2022-08-19T03:26:19;10.68;;;7.68;;
65855;SDS011;52631;42.208;24.656;2022-08-19T03:28:45;10.90;;;7.40;;
65855;SDS011;52631;42.208;24.656;2022-08-19T03:31:14;11.98;;;7.40;;
65855;SDS011;52631;42.208;24.656;2022-08-19T03:33:41;11.10;;;8.23;;
65855;SDS011;52631;42.208;24.656;2022-08-19T03:36:27;9.77;;;7.22;;
65855;SDS011;52631;42.208;24.656;2022-08-19T03:38:54;13.40;;;7.97;;
65855;SDS011;52631;42.208;24.656;2022-08-19T03:41:23;10.07;;;7.50;;
65855;SDS011;52631;42.208;24.656;2022-08-19T03:43:50;13.38;;;8.13;;
65855;SDS011;52631;42.208;24.656;2022-08-19T03:46:18;16.92;;;7.68;;
65855;SDS011;52631;42.208;24.656;2022-08-19T03:48:46;11.50;;;7.72;;
65855;SDS011;52631;42.208;24.656;2022-08-19T03:51:17;12.18;;;8.18;;
65855;SDS011;52631;42.208;24.656;2022-08-19T03:53:47;11.88;;;8.32;;
65855;SDS011;52631;42.208;24.656;2022-08-19T03:56:14;13.60;;;8.57;;
65855;SDS011;52631;42.208;24.656;2022-08-19T03:58:40;12.48;;;8.25;;
65855;SDS011;52631;42.208;24.656;2022-08-19T04:01:09;12.15;;;8.55;;
65855;SDS011;52631;42.208;24.656;2022-08-19T04:03:37;12.35;;;8.63;;
65855;SDS011;52631;42.208;24.656;2022-08-19T04:06:09;14.55;;;8.80;;
65855;SDS011;52631;42.208;24.656;2022-08-19T04:08:42;15.00;;;8.65;;
65855;SDS011;52631;42.208;24.656;2022-08-19T04:11:10;11.55;;;8.63;;
65855;SDS011;52631;42.208;24.656;2022-08-19T04:13:37;14.32;;;8.95;;
65855;SDS011;52631;42.208;24.656;2022-08-19T04:16:03;13.85;;;8.43;;
65855;SDS011;52631;42.208;24.656;2022-08-19T04:18:30;12.52;;;8.20;;
65855;SDS011;52631;42.208;24.656;2022-08-19T04:20:56;13.77;;;8.73;;
65855;SDS011;52631;42.208;24.656;2022-08-19T04:23:22;17.42;;;8.85;;
65855;SDS011;52631;42.208;24.656;2022-08-19T04:25:48;13.93;;;8.82;;
65855;SDS011;52631;42.208;24.656;2022-08-19T04:28:13;10.60;;;8.32;;
65855;SDS011;52631;42.208;24.656;2022-08-19T04:30:40;11.32;;;8.38;;
65855;SDS011;52631;42.208;24.656;2022-08-19T04:33:11;14.63;;;9.15;;
65855;SDS011;52631;42.208;24.656;2022-08-19T04:35:38;14.95;;;8.57;;
65855;SDS011;52631;42.208;24.656;2022-08-19T04:38:08;16.42;;;9.07;;
65855;SDS011;52631;42.208;24.656;2022-08-19T04:40:34;14.35;;;8.85;;
65855;SDS011;52631;42.208;24.656;2022-08-19T04:43:24;15.00;;;8.75;;
65855;SDS011;52631;42.208;24.656;2022-08-19T04:45:49;10.50;;;7.82;;
65855;SDS011;52631;42.208;24.656;2022-08-19T04:48:16;10.57;;;8.05;;
65855;SDS011;52631;42.208;24.656;2022-08-19T04:50:48;14.70;;;8.63;;
65855;SDS011;52631;42.208;24.656;2022-08-19T04:53:13;16.23;;;9.25;;
65855;SDS011;52631;42.208;24.656;2022-08-19T04:55:40;11.82;;;8.40;;
65855;SDS011;52631;42.208;24.656;2022-08-19T04:58:07;11.82;;;8.60;;
65855;SDS011;52631;42.208;24.656;2022-08-19T05:00:32;11.82;;;8.10;;
65855;SDS011;52631;42.208;24.656;2022-08-19T05:02:58;13.35;;;8.60;;
65855;SDS011;52631;42.208;24.656;2022-08-19T05:05:23;14.90;;;9.15;;
65855;SDS011;52631;42.208;24.656;2022-08-19T05:07:49;14.52;;;9.45;;
65855;SDS011;52631;42.208;24.656;2022-08-19T05:10:14;11.70;;;8.50;;
65855;SDS011;52631;42.208;24.656;2022-08-19T05:12:40;13.25;;;8.65;;
65855;SDS011;52631;42.208;24.656;2022-08-19T05:15:07;12.07;;;8.60;;
65855;SDS011;52631;42.208;24.656;2022-08-19T05:17:33;13.68;;;8.82;;
65855;SDS011;52631;42.208;24.656;2022-08-19T05:19:59;14.38;;;9.23;;
65855;SDS011;52631;42.208;24.656;2022-08-19T05:22:44;15.43;;;8.77;;
65855;SDS011;52631;42.208;24.656;2022-08-19T05:25:12;16.95;;;9.13;;
65855;SDS011;52631;42.208;24.656;2022-08-19T05:27:40;12.65;;;9.20;;
65855;SDS011;52631;42.208;24.656;2022-08-19T05:30:06;13.57;;;9.85;;
65855;SDS011;52631;42.208;24.656;2022-08-19T05:32:32;13.38;;;8.98;;
65855;SDS011;52631;42.208;24.656;2022-08-19T05:34:57;14.43;;;10.38;;
65855;SDS011;52631;42.208;24.656;2022-08-19T05:37:23;13.40;;;8.88;;
65855;SDS011;52631;42.208;24.656;2022-08-19T05:39:51;13.93;;;9.13;;
65855;SDS011;52631;42.208;24.656;2022-08-19T05:42:17;16.95;;;10.02;;
65855;SDS011;52631;42.208;24.656;2022-08-19T05:44:45;15.18;;;8.98;;
65855;SDS011;52631;42.208;24.656;2022-08-19T05:47:12;12.60;;;8.50;;
65855;SDS011;52631;42.208;24.656;2022-08-19T05:49:39;13.85;;;8.82;;
65855;SDS011;52631;42.208;24.656;2022-08-19T05:52:06;15.05;;;8.98;;
65855;SDS011;52631;42.208;24.656;2022-08-19T05:54:34;15.13;;;9.52;;
65855;SDS011;52631;42.208;24.656;2022-08-19T05:57:00;12.80;;;8.48;;
65855;SDS011;52631;42.208;24.656;2022-08-19T05:59:26;13.32;;;8.55;;
65855;SDS011;52631;42.208;24.656;2022-08-19T06:01:52;13.45;;;8.38;;
65855;SDS011;52631;42.208;24.656;2022-08-19T06:04:20;13.98;;;10.00;;
65855;SDS011;52631;42.208;24.656;2022-08-19T06:06:47;19.05;;;9.35;;
65855;SDS011;52631;42.208;24.656;2022-08-19T06:09:14;18.70;;;8.50;;
65855;SDS011;52631;42.208;24.656;2022-08-19T06:11:41;14.85;;;8.35;;
65855;SDS011;52631;42.208;24.656;2022-08-19T06:14:10;16.00;;;8.20;;
65855;SDS011;52631;42.208;24.656;2022-08-19T06:16:38;10.27;;;7.13;;
65855;SDS011;52631;42.208;24.656;2022-08-19T06:19:07;10.60;;;6.68;;
65855;SDS011;52631;42.208;24.656;2022-08-19T06:21:36;12.33;;;6.90;;
65855;SDS011;52631;42.208;24.656;2022-08-19T06:24:02;10.73;;;6.60;;
65855;SDS011;52631;42.208;24.656;2022-08-19T06:26:33;10.07;;;6.97;;
65855;SDS011;52631;42.208;24.656;2022-08-19T06:29:00;8.98;;;6.53;;
65855;SDS011;52631;42.208;24.656;2022-08-19T06:31:27;8.90;;;5.78;;
65855;SDS011;52631;42.208;24.656;2022-08-19T06:33:54;9.40;;;6.25;;
65855;SDS011;52631;42.208;24.656;2022-08-19T06:36:30;8.60;;;6.55;;
65855;SDS011;52631;42.208;24.656;2022-08-19T06:38:59;8.90;;;6.45;;
65855;SDS011;52631;42.208;24.656;2022-08-19T06:41:46;8.32;;;6.75;;
65855;SDS011;52631;42.208;24.656;2022-08-19T06:44:12;9.68;;;6.95;;
65855;SDS011;52631;42.208;24.656;2022-08-19T06:46:39;9.57;;;7.47;;
65855;SDS011;52631;42.208;24.656;2022-08-19T06:49:05;10.38;;;6.68;;
65855;SDS011;52631;42.208;24.656;2022-08-19T06:51:33;9.27;;;7.35;;
65855;SDS011;52631;42.208;24.656;2022-08-19T06:53:59;10.40;;;7.32;;
65855;SDS011;52631;42.208;24.656;2022-08-19T06:56:27;9.52;;;7.05;;
65855;SDS011;52631;42.208;24.656;2022-08-19T06:59:06;12.55;;;7.75;;
65855;SDS011;52631;42.208;24.656;2022-08-19T07:01:34;9.00;;;7.30;;
65855;SDS011;52631;42.208;24.656;2022-08-19T07:04:05;10.13;;;7.07;;
65855;SDS011;52631;42.208;24.656;2022-08-19T07:06:31;9.15;;;7.07;;
65855;SDS011;52631;42.208;24.656;2022-08-19T07:08:57;10.75;;;7.55;;
65855;SDS011;52631;42.208;24.656;2022-08-19T07:11:23;9.77;;;6.78;;
65855;SDS011;52631;42.208;24.656;2022-08-19T07:13:49;8.45;;;6.63;;
65855;SDS011;52631;42.208;24.656;2022-08-19T07:16:16;12.30;;;7.13;;
65855;SDS011;52631;42.208;24.656;2022-08-19T07:18:45;11.97;;;6.73;;
65855;SDS011;52631;42.208;24.656;2022-08-19T07:21:13;10.07;;;7.20;;
65855;SDS011;52631;42.208;24.656;2022-08-19T07:23:41;11.45;;;7.22;;
65855;SDS011;52631;42.208;24.656;2022-08-19T07:26:14;12.35;;;7.30;;
65855;SDS011;52631;42.208;24.656;2022-08-19T07:28:39;8.73;;;6.47;;
65855;SDS011;52631;42.208;24.656;2022-08-19T07:31:06;8.57;;;6.53;;
65855;SDS011;52631;42.208;24.656;2022-08-19T07:33:32;10.35;;;6.68;;
65855;SDS011;52631;42.208;24.656;2022-08-19T07:36:00;7.90;;;6.78;;
65855;SDS011;52631;42.208;24.656;2022-08-19T07:38:26;11.05;;;7.28;;
65855;SDS011;52631;42.208;24.656;2022-08-19T07:40:51;8.77;;;6.85;;
65855;SDS011;52631;42.208;24.656;2022-08-19T07:43:17;22.70;;;12.05;;
65855;SDS011;52631;42.208;24.656;2022-08-19T07:48:13;9.48;;;7.50;;
65855;SDS011;52631;42.208;24.656;2022-08-19T07:50:39;18.40;;;11.68;;
65855;SDS011;52631;42.208;24.656;2022-08-19T07:53:05;14.48;;;10.77;;
65855;SDS011;52631;42.208;24.656;2022-08-19T07:55:30;12.77;;;8.35;;
65855;SDS011;52631;42.208;24.656;2022-08-19T07:57:56;13.63;;;8.50;;
65855;SDS011;52631;42.208;24.656;2022-08-19T08:00:22;13.85;;;9.48;;
65855;SDS011;52631;42.208;24.656;2022-08-19T08:02:47;13.65;;;9.00;;
65855;SDS011;52631;42.208;24.656;2022-08-19T08:05:13;10.70;;;7.40;;
65855;SDS011;52631;42.208;24.656;2022-08-19T08:07:57;11.15;;;7.18;;
65855;SDS011;52631;42.208;24.656;2022-08-19T08:10:41;12.63;;;7.65;;
65855;SDS011;52631;42.208;24.656;2022-08-19T08:13:06;10.10;;;7.55;;
65855;SDS011;52631;42.208;24.656;2022-08-19T08:15:32;10.60;;;8.20;;
65855;SDS011;52631;42.208;24.656;2022-08-19T08:17:57;12.55;;;7.88;;
65855;SDS011;52631;42.208;24.656;2022-08-19T08:20:23;10.63;;;7.80;;
65855;SDS011;52631;42.208;24.656;2022-08-19T08:22:49;13.32;;;7.80;;
65855;SDS011;52631;42.208;24.656;2022-08-19T08:25:33;10.30;;;7.22;;
65855;SDS011;52631;42.208;24.656;2022-08-19T08:28:00;11.88;;;7.15;;
65855;SDS011;52631;42.208;24.656;2022-08-19T08:30:27;14.55;;;7.95;;
65855;SDS011;52631;42.208;24.656;2022-08-19T08:32:53;12.00;;;7.65;;
65855;SDS011;52631;42.208;24.656;2022-08-19T08:35:19;9.85;;;6.82;;
65855;SDS011;52631;42.208;24.656;2022-08-19T08:37:47;10.73;;;7.47;;
65855;SDS011;52631;42.208;24.656;2022-08-19T08:45:53;10.25;;;6.97;;
65855;SDS011;52631;42.208;24.656;2022-08-19T08:51:15;9.90;;;7.07;;
65855;SDS011;52631;42.208;24.656;2022-08-19T08:53:52;11.95;;;7.43;;
65855;SDS011;52631;42.208;24.656;2022-08-19T08:56:18;9.88;;;7.03;;
65855;SDS011;52631;42.208;24.656;2022-08-19T09:01:28;8.85;;;6.50;;
65855;SDS011;52631;42.208;24.656;2022-08-19T09:03:54;13.00;;;7.10;;
65855;SDS011;52631;42.208;24.656;2022-08-19T09:16:37;10.60;;;6.57;;
65855;SDS011;52631;42.208;24.656;2022-08-19T09:19:05;8.63;;;6.07;;
65855;SDS011;52631;42.208;24.656;2022-08-19T09:21:32;12.60;;;7.18;;
65855;SDS011;52631;42.208;24.656;2022-08-19T09:23:59;12.63;;;6.82;;
65855;SDS011;52631;42.208;24.656;2022-08-19T09:26:26;9.77;;;7.07;;
65855;SDS011;52631;42.208;24.656;2022-08-19T09:28:55;13.32;;;6.85;;
65855;SDS011;52631;42.208;24.656;2022-08-19T09:31:23;7.60;;;6.32;;
65855;SDS011;52631;42.208;24.656;2022-08-19T09:33:51;10.20;;;6.60;;
65855;SDS011;52631;42.208;24.656;2022-08-19T09:36:18;21.70;;;10.73;;
65855;SDS011;52631;42.208;24.656;2022-08-19T09:38:47;8.18;;;6.57;;
65855;SDS011;52631;42.208;24.656;2022-08-19T09:41:16;8.60;;;6.57;;
65855;SDS011;52631;42.208;24.656;2022-08-19T09:43:44;10.23;;;5.40;;
65855;SDS011;52631;42.208;24.656;2022-08-19T09:46:10;8.35;;;5.43;;
65855;SDS011;52631;42.208;24.656;2022-08-19T09:48:36;8.50;;;5.47;;
65855;SDS011;52631;42.208;24.656;2022-08-19T09:51:06;8.20;;;5.70;;
65855;SDS011;52631;42.208;24.656;2022-08-19T09:53:33;15.40;;;8.98;;
65855;SDS011;52631;42.208;24.656;2022-08-19T09:56:00;7.90;;;5.45;;
65855;SDS011;52631;42.208;24.656;2022-08-19T09:58:26;8.32;;;5.40;;
65855;SDS011;52631;42.208;24.656;2022-08-19T10:00:52;8.38;;;5.38;;
65855;SDS011;52631;42.208;24.656;2022-08-19T10:03:21;10.73;;;5.65;;
65855;SDS011;52631;42.208;24.656;2022-08-19T10:05:47;8.77;;;6.03;;
65855;SDS011;52631;42.208;24.656;2022-08-19T10:08:13;9.07;;;6.28;;
65855;SDS011;52631;42.208;24.656;2022-08-19T10:10:40;8.38;;;6.20;;
65855;SDS011;52631;42.208;24.656;2022-08-19T10:13:10;9.60;;;6.30;;
65855;SDS011;52631;42.208;24.656;2022-08-19T10:15:37;9.13;;;6.55;;
65855;SDS011;52631;42.208;24.656;2022-08-19T10:18:04;8.90;;;6.15;;
65855;SDS011;52631;42.208;24.656;2022-08-19T10:20:30;14.63;;;8.77;;
65855;SDS011;52631;42.208;24.656;2022-08-19T10:22:56;9.23;;;5.93;;
65855;SDS011;52631;42.208;24.656;2022-08-19T10:25:24;12.25;;;6.00;;
65855;SDS011;52631;42.208;24.656;2022-08-19T10:27:51;8.98;;;6.07;;
65855;SDS011;52631;42.208;24.656;2022-08-19T10:30:16;6.72;;;5.80;;
65855;SDS011;52631;42.208;24.656;2022-08-19T10:32:44;10.43;;;6.38;;
65855;SDS011;52631;42.208;24.656;2022-08-19T10:35:12;10.60;;;6.13;;
65855;SDS011;52631;42.208;24.656;2022-08-19T10:37:39;9.20;;;6.07;;
65855;SDS011;52631;42.208;24.656;2022-08-19T10:40:05;7.22;;;5.95;;
65855;SDS011;52631;42.208;24.656;2022-08-19T10:42:35;17.52;;;6.43;;
65855;SDS011;52631;42.208;24.656;2022-08-19T10:45:02;6.95;;;5.63;;
65855;SDS011;52631;42.208;24.656;2022-08-19T10:47:28;6.80;;;5.60;;
65855;SDS011;52631;42.208;24.656;2022-08-19T10:49:57;7.65;;;5.53;;
65855;SDS011;52631;42.208;24.656;2022-08-19T10:52:43;9.05;;;5.85;;
65855;SDS011;52631;42.208;24.656;2022-08-19T10:55:09;6.20;;;5.60;;
65855;SDS011;52631;42.208;24.656;2022-08-19T10:57:53;8.05;;;5.20;;
65855;SDS011;52631;42.208;24.656;2022-08-19T11:00:19;9.15;;;5.30;;
65855;SDS011;52631;42.208;24.656;2022-08-19T11:02:46;8.52;;;5.18;;
65855;SDS011;52631;42.208;24.656;2022-08-19T11:05:11;9.13;;;6.03;;
65855;SDS011;52631;42.208;24.656;2022-08-19T11:07:38;8.60;;;5.82;;
65855;SDS011;52631;42.208;24.656;2022-08-19T11:10:04;8.68;;;5.47;;
65855;SDS011;52631;42.208;24.656;2022-08-19T11:12:30;7.88;;;5.30;;
65855;SDS011;52631;42.208;24.656;2022-08-19T11:14:56;7.72;;;5.60;;
65855;SDS011;52631;42.208;24.656;2022-08-19T11:17:22;8.23;;;5.70;;
65855;SDS011;52631;42.208;24.656;2022-08-19T11:19:49;9.45;;;5.45;;
65855;SDS011;52631;42.208;24.656;2022-08-19T11:22:15;6.80;;;5.47;;
65855;SDS011;52631;42.208;24.656;2022-08-19T11:24:42;11.57;;;5.60;;
65855;SDS011;52631;42.208;24.656;2022-08-19T11:27:08;8.18;;;5.55;;
65855;SDS011;52631;42.208;24.656;2022-08-19T11:29:35;9.27;;;5.18;;
65855;SDS011;52631;42.208;24.656;2022-08-19T11:32:06;10.82;;;5.45;;
65855;SDS011;52631;42.208;24.656;2022-08-19T11:34:34;9.25;;;5.32;;
65855;SDS011;52631;42.208;24.656;2022-08-19T11:37:00;8.10;;;5.20;;
65855;SDS011;52631;42.208;24.656;2022-08-19T11:39:27;8.70;;;5.35;;
65855;SDS011;52631;42.208;24.656;2022-08-19T11:41:54;6.65;;;5.20;;
65855;SDS011;52631;42.208;24.656;2022-08-19T11:44:20;5.85;;;5.18;;
65855;SDS011;52631;42.208;24.656;2022-08-19T11:46:45;9.10;;;5.70;;
65855;SDS011;52631;42.208;24.656;2022-08-19T11:49:12;10.35;;;5.47;;
65855;SDS011;52631;42.208;24.656;2022-08-19T11:51:38;12.00;;;5.53;;
65855;SDS011;52631;42.208;24.656;2022-08-19T11:54:04;6.43;;;4.80;;
65855;SDS011;52631;42.208;24.656;2022-08-19T11:56:30;7.93;;;5.45;;
65855;SDS011;52631;42.208;24.656;2022-08-19T11:58:56;8.27;;;5.47;;
65855;SDS011;52631;42.208;24.656;2022-08-19T12:01:23;6.93;;;5.25;;
65855;SDS011;52631;42.208;24.656;2022-08-19T12:03:50;7.65;;;5.30;;
65855;SDS011;52631;42.208;24.656;2022-08-19T12:06:20;11.38;;;5.10;;
65855;SDS011;52631;42.208;24.656;2022-08-19T12:08:52;7.45;;;4.93;;
65855;SDS011;52631;42.208;24.656;2022-08-19T12:11:20;10.23;;;5.35;;
65855;SDS011;52631;42.208;24.656;2022-08-19T12:13:46;11.55;;;5.05;;
65855;SDS011;52631;42.208;24.656;2022-08-19T12:16:17;7.20;;;5.35;;
65855;SDS011;52631;42.208;24.656;2022-08-19T12:18:48;8.45;;;4.78;;
65855;SDS011;52631;42.208;24.656;2022-08-19T12:21:16;8.52;;;5.55;;
65855;SDS011;52631;42.208;24.656;2022-08-19T12:23:46;8.40;;;5.32;;
65855;SDS011;52631;42.208;24.656;2022-08-19T12:26:12;6.85;;;5.05;;
65855;SDS011;52631;42.208;24.656;2022-08-19T12:28:38;12.25;;;5.43;;
65855;SDS011;52631;42.208;24.656;2022-08-19T12:31:03;14.85;;;5.80;;
65855;SDS011;52631;42.208;24.656;2022-08-19T12:33:30;8.88;;;5.13;;
65855;SDS011;52631;42.208;24.656;2022-08-19T12:35:59;6.13;;;4.95;;
65855;SDS011;52631;42.208;24.656;2022-08-19T12:38:29;9.63;;;5.35;;
65855;SDS011;52631;42.208;24.656;2022-08-19T12:40:54;9.95;;;5.38;;
65855;SDS011;52631;42.208;24.656;2022-08-19T12:43:20;9.85;;;5.28;;
65855;SDS011;52631;42.208;24.656;2022-08-19T12:45:46;7.57;;;5.43;;
65855;SDS011;52631;42.208;24.656;2022-08-19T12:48:12;8.70;;;5.07;;
65855;SDS011;52631;42.208;24.656;2022-08-19T12:50:42;9.48;;;5.43;;
65855;SDS011;52631;42.208;24.656;2022-08-19T12:53:10;8.15;;;5.18;;
65855;SDS011;52631;42.208;24.656;2022-08-19T12:55:36;8.40;;;5.25;;
65855;SDS011;52631;42.208;24.656;2022-08-19T12:58:03;10.70;;;5.50;;
65855;SDS011;52631;42.208;24.656;2022-08-19T13:00:29;8.85;;;5.40;;
65855;SDS011;52631;42.208;24.656;2022-08-19T13:02:57;7.63;;;5.45;;
65855;SDS011;52631;42.208;24.656;2022-08-19T13:05:24;6.90;;;5.43;;
65855;SDS011;52631;42.208;24.656;2022-08-19T13:07:52;6.82;;;5.35;;
65855;SDS011;52631;42.208;24.656;2022-08-19T13:10:21;6.55;;;5.80;;
65855;SDS011;52631;42.208;24.656;2022-08-19T13:12:48;8.70;;;5.40;;
65855;SDS011;52631;42.208;24.656;2022-08-19T13:15:15;10.32;;;5.75;;
65855;SDS011;52631;42.208;24.656;2022-08-19T13:17:46;6.30;;;5.32;;
65855;SDS011;52631;42.208;24.656;2022-08-19T13:20:14;7.78;;;4.90;;
65855;SDS011;52631;42.208;24.656;2022-08-19T13:22:41;6.55;;;5.20;;
65855;SDS011;52631;42.208;24.656;2022-08-19T13:25:07;8.38;;;5.10;;
65855;SDS011;52631;42.208;24.656;2022-08-19T13:27:34;7.03;;;5.25;;
65855;SDS011;52631;42.208;24.656;2022-08-19T13:30:00;7.82;;;5.10;;
65855;SDS011;52631;42.208;24.656;2022-08-19T13:32:45;9.55;;;5.53;;
65855;SDS011;52631;42.208;24.656;2022-08-19T13:35:28;8.85;;;5.00;;
65855;SDS011;52631;42.208;24.656;2022-08-19T13:37:55;7.15;;;5.20;;
65855;SDS011;52631;42.208;24.656;2022-08-19T13:40:21;8.48;;;5.50;;
65855;SDS011;52631;42.208;24.656;2022-08-19T13:42:49;7.55;;;4.82;;
65855;SDS011;52631;42.208;24.656;2022-08-19T13:45:19;8.13;;;4.93;;
65855;SDS011;52631;42.208;24.656;2022-08-19T13:47:49;9.07;;;4.82;;
65855;SDS011;52631;42.208;24.656;2022-08-19T13:50:17;8.23;;;5.03;;
65855;SDS011;52631;42.208;24.656;2022-08-19T13:52:45;7.40;;;5.25;;
65855;SDS011;52631;42.208;24.656;2022-08-19T13:55:15;7.30;;;4.63;;
65855;SDS011;52631;42.208;24.656;2022-08-19T13:57:40;6.70;;;4.85;;
65855;SDS011;52631;42.208;24.656;2022-08-19T14:00:11;7.70;;;4.90;;
65855;SDS011;52631;42.208;24.656;2022-08-19T14:02:39;6.55;;;4.63;;
65855;SDS011;52631;42.208;24.656;2022-08-19T14:05:07;8.77;;;4.97;;
65855;SDS011;52631;42.208;24.656;2022-08-19T14:07:34;6.85;;;5.32;;
65855;SDS011;52631;42.208;24.656;2022-08-19T14:10:02;7.93;;;5.22;;
65855;SDS011;52631;42.208;24.656;2022-08-19T14:12:29;8.13;;;5.07;;
65855;SDS011;52631;42.208;24.656;2022-08-19T14:14:57;6.63;;;4.95;;
65855;SDS011;52631;42.208;24.656;2022-08-19T14:17:22;8.18;;;4.75;;
65855;SDS011;52631;42.208;24.656;2022-08-19T14:19:48;10.20;;;4.95;;
65855;SDS011;52631;42.208;24.656;2022-08-19T14:22:14;9.52;;;5.40;;
65855;SDS011;52631;42.208;24.656;2022-08-19T14:24:39;7.47;;;5.45;;
65855;SDS011;52631;42.208;24.656;2022-08-19T14:27:06;6.45;;;5.28;;
65855;SDS011;52631;42.208;24.656;2022-08-19T14:29:31;7.03;;;4.75;;
65855;SDS011;52631;42.208;24.656;2022-08-19T14:31:58;6.38;;;5.20;;
65855;SDS011;52631;42.208;24.656;2022-08-19T14:34:24;7.97;;;5.00;;
65855;SDS011;52631;42.208;24.656;2022-08-19T14:36:51;9.57;;;5.40;;
65855;SDS011;52631;42.208;24.656;2022-08-19T14:39:17;6.13;;;5.35;;
65855;SDS011;52631;42.208;24.656;2022-08-19T14:41:46;8.23;;;5.18;;
65855;SDS011;52631;42.208;24.656;2022-08-19T14:44:11;7.82;;;5.13;;
65855;SDS011;52631;42.208;24.656;2022-08-19T14:46:38;6.05;;;4.75;;
65855;SDS011;52631;42.208;24.656;2022-08-19T14:49:03;7.63;;;5.18;;
65855;SDS011;52631;42.208;24.656;2022-08-19T14:51:29;7.20;;;5.22;;
65855;SDS011;52631;42.208;24.656;2022-08-19T14:53:55;9.32;;;5.68;;
65855;SDS011;52631;42.208;24.656;2022-08-19T14:56:25;8.90;;;5.55;;